createdAt,value
2023-04-11T00:00:36.213Z,7.80
2023-04-11T00:03:04.694Z,8.10
2023-04-11T00:05:34.322Z,7.90
2023-04-11T00:08:03.539Z,8.00
2023-04-11T00:10:32.782Z,8.00
2023-04-11T00:13:03.426Z,7.90
2023-04-11T00:15:32.639Z,8.80
2023-04-11T00:18:00.747Z,7.90
2023-04-11T00:20:29.996Z,7.80
2023-04-11T00:22:58.393Z,7.80
2023-04-11T00:25:30.952Z,8.40
2023-04-11T00:28:00.529Z,7.80
2023-04-11T00:30:31.178Z,7.70
2023-04-11T00:33:00.300Z,7.70
2023-04-11T00:35:30.066Z,7.60
2023-04-11T00:38:02.604Z,7.60
2023-04-11T00:40:32.591Z,8.80
2023-04-11T00:43:01.805Z,7.60
2023-04-11T00:45:32.456Z,6.20
2023-04-11T00:48:03.252Z,7.50
2023-04-11T00:50:31.591Z,7.60
2023-04-11T00:53:02.063Z,7.60
2023-04-11T00:55:30.718Z,7.50
2023-04-11T00:58:01.203Z,7.50
2023-04-11T01:00:33.017Z,7.50
2023-04-11T01:03:03.584Z,7.40
2023-04-11T01:05:32.895Z,7.40
2023-04-11T01:08:02.297Z,7.30
2023-04-11T01:10:31.825Z,7.30
2023-04-11T01:13:02.599Z,7.50
2023-04-11T01:15:33.340Z,7.30
2023-04-11T01:18:03.271Z,8.90
2023-04-11T01:20:33.690Z,7.10
2023-04-11T01:23:04.899Z,7.20
2023-04-11T01:25:34.365Z,6.80
2023-04-11T01:28:04.425Z,10.30
2023-04-11T01:30:33.126Z,7.10
2023-04-11T01:33:03.700Z,7.30
2023-04-11T01:35:33.288Z,7.20
2023-04-11T01:38:03.447Z,7.00
2023-04-11T01:40:34.359Z,7.10
2023-04-11T01:43:04.362Z,7.40
2023-04-11T01:45:33.884Z,5.60
2023-04-11T01:48:08.319Z,8.70
2023-04-11T01:50:36.808Z,7.20
2023-04-11T01:53:07.243Z,7.90
2023-04-11T01:55:37.823Z,7.40
2023-04-11T01:58:07.088Z,7.20
2023-04-11T02:00:37.032Z,7.30
2023-04-11T02:03:06.920Z,7.30
2023-04-11T02:05:37.573Z,6.30
2023-04-11T02:08:06.897Z,7.40
2023-04-11T02:10:37.547Z,6.20
2023-04-11T02:13:06.825Z,8.30
2023-04-11T02:15:36.066Z,7.70
2023-04-11T02:18:06.827Z,7.60
2023-04-11T02:20:37.413Z,7.60
2023-04-11T02:23:06.732Z,7.50
2023-04-11T02:25:34.961Z,7.50
2023-04-11T02:28:08.199Z,7.40
2023-04-11T02:30:36.644Z,7.70
2023-04-11T02:33:05.111Z,7.50
2023-04-11T02:35:34.594Z,7.50
2023-04-11T02:38:05.040Z,7.30
2023-04-11T02:40:34.280Z,9.40
2023-04-11T02:43:02.340Z,7.70
2023-04-11T02:45:33.706Z,7.70
2023-04-11T02:48:05.219Z,7.70
2023-04-11T02:50:36.808Z,7.70
2023-04-11T02:53:05.160Z,7.60
2023-04-11T02:55:34.864Z,7.60
2023-04-11T02:58:04.149Z,7.60
2023-04-11T03:00:33.758Z,7.50
2023-04-11T03:03:07.437Z,7.50
2023-04-11T03:05:41.902Z,7.40
2023-04-11T03:08:12.986Z,7.30
2023-04-11T03:10:49.199Z,7.10
2023-04-11T03:13:17.718Z,6.70
2023-04-11T03:15:48.498Z,6.40
2023-04-11T03:18:18.742Z,6.90
2023-04-11T03:20:49.105Z,7.70
2023-04-11T03:23:18.824Z,5.80
2023-04-11T03:25:48.074Z,6.00
2023-04-11T03:28:18.616Z,5.80
2023-04-11T03:30:48.823Z,5.80
2023-04-11T03:33:22.235Z,6.00
2023-04-11T03:35:51.661Z,5.80
2023-04-11T03:38:22.093Z,5.80
2023-04-11T03:40:51.370Z,5.70
2023-04-11T03:43:22.340Z,5.70
2023-04-11T03:45:53.447Z,5.90
2023-04-11T03:48:37.093Z,6.60
2023-04-11T03:51:09.433Z,5.60
2023-04-11T03:53:49.310Z,4.80
2023-04-11T03:56:32.069Z,5.50
2023-04-11T03:59:00.427Z,5.90
2023-04-11T04:01:38.326Z,5.00
2023-04-11T04:04:07.986Z,6.00
2023-04-11T04:06:40.531Z,6.30
2023-04-11T04:09:10.848Z,6.10
2023-04-11T04:11:50.054Z,5.30
2023-04-11T04:14:21.102Z,6.30
2023-04-11T04:16:52.428Z,6.60
2023-04-11T04:19:21.441Z,6.40
2023-04-11T04:21:50.792Z,6.70
2023-04-11T04:24:20.059Z,6.60
2023-04-11T04:27:01.011Z,6.40
2023-04-11T04:29:47.379Z,6.80
2023-04-11T04:32:26.237Z,6.80
2023-04-11T04:35:01.599Z,6.70
2023-04-11T04:37:40.769Z,6.80
2023-04-11T04:40:20.620Z,7.40
2023-04-11T04:42:59.129Z,6.80
2023-04-11T04:45:38.132Z,6.80
2023-04-11T04:48:10.313Z,6.90
2023-04-11T04:50:40.266Z,6.90
2023-04-11T04:53:10.973Z,7.00
2023-04-11T04:55:46.371Z,6.80
2023-04-11T04:58:18.578Z,6.70
2023-04-11T05:03:26.237Z,6.60
2023-04-11T05:05:56.833Z,7.10
2023-04-11T05:08:27.361Z,6.60
2023-04-11T05:10:58.308Z,6.40
2023-04-11T05:13:27.725Z,4.90
2023-04-11T05:15:56.148Z,6.30
2023-04-11T05:18:30.676Z,7.80
2023-04-11T05:20:59.350Z,8.30
2023-04-11T05:23:35.489Z,6.30
2023-04-11T05:26:04.861Z,7.40
2023-04-11T05:28:36.103Z,6.60
2023-04-11T05:31:11.709Z,6.60
2023-04-11T05:33:43.249Z,5.90
2023-04-11T05:36:14.257Z,7.10
2023-04-11T05:38:42.686Z,7.20
2023-04-11T05:41:11.024Z,8.80
2023-04-11T05:43:40.347Z,7.20
2023-04-11T05:46:10.848Z,7.10
2023-04-11T05:48:43.083Z,7.00
2023-04-11T05:51:11.245Z,7.10
2023-04-11T05:53:42.261Z,6.60
2023-04-11T05:56:12.971Z,6.50
2023-04-11T05:58:45.371Z,7.20
2023-04-11T06:01:18.485Z,6.10
2023-04-11T06:03:48.324Z,6.10
2023-04-11T06:06:17.737Z,6.00
2023-04-11T06:08:46.078Z,6.10
2023-04-11T06:11:16.032Z,6.10
2023-04-11T06:13:45.493Z,6.20
2023-04-11T06:16:14.946Z,8.10
2023-04-11T06:18:45.677Z,4.80
2023-04-11T06:21:15.412Z,6.10
2023-04-11T06:23:45.918Z,6.10
2023-04-11T06:26:14.705Z,5.70
2023-04-11T06:28:44.153Z,5.80
2023-04-11T06:31:14.387Z,5.80
2023-04-11T06:33:42.536Z,5.70
2023-04-11T06:36:12.902Z,5.70
2023-04-11T06:38:44.498Z,5.40
2023-04-11T06:41:14.523Z,5.50
2023-04-11T06:43:43.854Z,5.70
2023-04-11T06:46:13.195Z,5.70
2023-04-11T06:48:42.666Z,5.80
2023-04-11T06:51:12.154Z,5.70
2023-04-11T06:53:41.429Z,5.80
2023-04-11T06:56:12.304Z,5.80
2023-04-11T06:58:42.772Z,5.80
2023-04-11T07:01:12.313Z,5.80
2023-04-11T07:03:43.014Z,5.80
2023-04-11T07:06:11.743Z,5.70
2023-04-11T07:08:41.007Z,5.60
2023-04-11T07:11:10.308Z,5.70
2023-04-11T07:13:39.768Z,5.40
2023-04-11T07:16:08.831Z,5.90
2023-04-11T07:18:36.916Z,5.60
2023-04-11T07:21:07.656Z,5.00
2023-04-11T07:23:36.906Z,5.50
2023-04-11T07:26:07.815Z,5.60
2023-04-11T07:28:37.566Z,5.80
2023-04-11T07:31:09.774Z,6.10
2023-04-11T07:33:39.339Z,6.30
2023-04-11T07:36:09.726Z,6.40
2023-04-11T07:38:39.060Z,6.60
2023-04-11T07:41:10.901Z,5.90
2023-04-11T07:43:40.699Z,6.70
2023-04-11T07:46:12.364Z,6.40
2023-04-11T07:48:42.445Z,7.20
2023-04-11T07:51:11.906Z,7.60
2023-04-11T07:53:41.151Z,8.10
2023-04-11T07:56:10.199Z,9.70
2023-04-11T07:58:39.494Z,8.70
2023-04-11T08:01:21.389Z,8.70
2023-04-11T08:03:50.972Z,8.40
2023-04-11T08:06:20.384Z,8.20
2023-04-11T08:08:49.118Z,8.10
2023-04-11T08:11:18.676Z,8.00
2023-04-11T08:13:47.933Z,9.30
2023-04-11T08:16:17.336Z,7.70
2023-04-11T08:18:46.676Z,9.60
2023-04-11T08:21:17.464Z,7.90
2023-04-11T08:23:47.568Z,8.00
2023-04-11T08:26:18.315Z,8.40
2023-04-11T08:28:46.516Z,9.10
2023-04-11T08:31:17.089Z,10.00
2023-04-11T08:33:45.209Z,12.00
2023-04-11T08:36:13.900Z,11.20
2023-04-11T08:38:43.475Z,11.00
2023-04-11T08:41:11.943Z,10.30
2023-04-11T08:43:41.527Z,10.10
2023-04-11T08:46:13.068Z,10.30
2023-04-11T08:48:42.475Z,10.60
2023-04-11T08:51:13.754Z,10.70
2023-04-11T08:53:43.837Z,11.00
2023-04-11T08:56:17.385Z,11.70
2023-04-11T08:58:47.101Z,11.20
2023-04-11T09:01:27.433Z,11.50
2023-04-11T09:03:57.613Z,11.80
2023-04-11T09:06:26.880Z,12.00
2023-04-11T09:08:58.311Z,12.30
2023-04-11T09:11:27.879Z,12.20
2023-04-11T09:14:07.726Z,12.00
2023-04-11T09:16:37.204Z,11.60
2023-04-11T09:19:23.821Z,11.10
2023-04-11T09:21:53.294Z,10.70
2023-04-11T09:24:23.573Z,10.50
2023-04-11T09:26:53.256Z,9.50
2023-04-11T09:29:37.917Z,11.60
2023-04-11T09:32:06.762Z,11.90
2023-04-11T09:34:40.036Z,12.10
2023-04-11T09:37:10.692Z,12.00
2023-04-11T09:39:41.546Z,12.70
2023-04-11T09:42:26.426Z,13.40
2023-04-11T09:44:55.867Z,14.00
2023-04-11T09:47:24.179Z,14.80
2023-04-11T09:49:52.901Z,15.20
2023-04-11T09:52:23.003Z,15.70
2023-04-11T09:54:54.578Z,15.80
2023-04-11T09:57:23.775Z,15.90
2023-04-11T09:59:54.961Z,15.70
2023-04-11T10:02:25.717Z,15.80
2023-04-11T10:04:55.443Z,15.50
2023-04-11T10:07:25.406Z,15.20
2023-04-11T10:09:56.340Z,14.50
2023-04-11T10:12:34.017Z,14.20
2023-04-11T10:15:10.735Z,13.90
2023-04-11T10:17:41.117Z,13.90
2023-04-11T10:20:47.545Z,14.10
2023-04-11T10:23:17.465Z,13.00
2023-04-11T10:25:54.405Z,13.60
2023-04-11T10:28:31.918Z,14.70
2023-04-11T10:31:03.023Z,15.70
2023-04-11T10:33:33.189Z,17.00
2023-04-11T10:36:05.058Z,17.30
2023-04-11T10:38:49.857Z,17.60
2023-04-11T10:41:28.857Z,17.30
2023-04-11T10:44:20.970Z,17.20
2023-04-11T10:46:55.048Z,17.00
2023-04-11T10:49:38.435Z,17.20
2023-04-11T10:52:25.484Z,17.70
2023-04-11T10:54:54.707Z,18.10
2023-04-11T10:57:25.567Z,18.40
2023-04-11T10:59:59.706Z,18.50
2023-04-11T11:02:41.236Z,18.30
2023-04-11T11:05:20.685Z,17.90
2023-04-11T11:07:52.951Z,17.10
2023-04-11T11:10:38.196Z,15.90
2023-04-11T11:13:09.137Z,14.60
2023-04-11T11:15:38.552Z,13.80
2023-04-11T11:18:09.489Z,18.00
2023-04-11T11:20:39.796Z,15.00
2023-04-11T11:23:10.034Z,15.00
2023-04-11T11:25:39.790Z,14.20
2023-04-11T11:28:10.211Z,13.30
2023-04-11T11:30:53.973Z,12.50
2023-04-11T11:33:26.352Z,12.10
2023-04-11T11:35:56.668Z,12.70
2023-04-11T11:38:27.209Z,13.60
2023-04-11T11:40:56.259Z,15.00
2023-04-11T11:43:28.418Z,16.20
2023-04-11T11:46:09.169Z,16.60
2023-04-11T11:48:38.772Z,17.00
2023-04-11T11:51:07.779Z,17.50
2023-04-11T11:53:37.364Z,17.90
2023-04-11T11:56:16.018Z,18.00
2023-04-11T11:58:46.951Z,18.20
2023-04-11T12:01:17.135Z,18.40
2023-04-11T12:03:51.509Z,18.40
2023-04-11T12:06:21.910Z,18.80
2023-04-11T12:08:53.803Z,18.90
2023-04-11T12:11:26.462Z,18.90
2023-04-11T12:13:56.250Z,18.80
2023-04-11T12:16:24.773Z,18.30
2023-04-11T12:18:53.028Z,18.60
2023-04-11T12:21:22.928Z,18.90
2023-04-11T12:23:51.312Z,19.20
2023-04-11T12:26:23.077Z,19.30
2023-04-11T12:28:52.231Z,19.30
2023-04-11T12:31:28.608Z,18.90
2023-04-11T12:33:57.166Z,18.80
2023-04-11T12:36:27.648Z,18.80
2023-04-11T12:38:56.170Z,19.10
2023-04-11T12:43:57.502Z,19.90
2023-04-11T12:46:29.116Z,19.60
2023-04-11T12:48:57.757Z,19.40
2023-04-11T12:51:27.693Z,19.90
2023-04-11T12:53:58.042Z,18.60
2023-04-11T12:56:29.678Z,18.50
2023-04-11T12:58:58.044Z,17.70
2023-04-11T13:01:28.485Z,16.50
2023-04-11T13:03:57.430Z,16.20
2023-04-11T13:06:26.194Z,16.90
2023-04-11T13:08:57.997Z,16.70
2023-04-11T13:11:27.214Z,15.80
2023-04-11T13:13:57.217Z,14.90
2023-04-11T13:16:27.838Z,14.00
2023-04-11T13:18:57.329Z,13.20
2023-04-11T13:21:27.081Z,12.50
2023-04-11T13:23:58.201Z,12.10
2023-04-11T13:26:26.588Z,12.10
2023-04-11T13:28:56.201Z,12.50
2023-04-11T13:31:26.661Z,12.60
2023-04-11T13:33:59.191Z,12.60
2023-04-11T13:36:27.991Z,12.60
2023-04-11T13:38:59.872Z,12.60
2023-04-11T13:41:28.580Z,12.80
2023-04-11T13:43:59.051Z,12.80
2023-04-11T13:46:28.451Z,12.80
2023-04-11T13:48:57.977Z,12.70
2023-04-11T13:51:28.351Z,12.80
2023-04-11T13:53:56.707Z,13.80
2023-04-11T13:56:26.516Z,13.80
2023-04-11T13:58:54.777Z,15.40
2023-04-11T14:01:23.811Z,16.40
2023-04-11T14:03:54.879Z,16.30
2023-04-11T14:06:24.559Z,16.80
2023-04-11T14:08:53.045Z,17.60
2023-04-11T14:11:22.401Z,17.50
2023-04-11T14:13:50.696Z,17.60
2023-04-11T14:16:20.217Z,18.40
2023-04-11T14:18:49.956Z,19.10
2023-04-11T14:21:19.581Z,19.40
2023-04-11T14:23:50.608Z,19.40
2023-04-11T14:26:20.162Z,19.40
2023-04-11T14:28:49.541Z,19.10
2023-04-11T14:31:18.873Z,18.80
2023-04-11T14:33:47.280Z,17.70
2023-04-11T14:36:16.898Z,16.60
2023-04-11T14:38:45.305Z,15.90
2023-04-11T14:41:15.937Z,15.60
2023-04-11T14:43:45.233Z,15.00
2023-04-11T14:46:13.446Z,13.90
2023-04-11T14:48:42.867Z,13.50
2023-04-11T14:51:11.344Z,13.30
2023-04-11T14:53:40.828Z,14.10
2023-04-11T14:56:10.673Z,15.00
2023-04-11T14:58:41.340Z,15.00
2023-04-11T15:01:09.539Z,14.60
2023-04-11T15:03:40.682Z,14.30
2023-04-11T15:06:11.293Z,14.00
2023-04-11T15:08:41.395Z,14.10
2023-04-11T15:11:14.261Z,14.30
2023-04-11T15:13:47.886Z,14.20
2023-04-11T15:16:16.939Z,14.10
2023-04-11T15:18:47.491Z,14.90
2023-04-11T15:21:19.417Z,15.30
2023-04-11T15:23:48.906Z,15.20
2023-04-11T15:26:17.188Z,15.00
2023-04-11T15:28:48.407Z,15.80
2023-04-11T15:31:26.411Z,16.50
2023-04-11T15:33:57.667Z,16.80
2023-04-11T15:36:28.670Z,16.10
2023-04-11T15:38:59.396Z,15.40
2023-04-11T15:41:28.035Z,16.70
2023-04-11T15:43:58.900Z,17.30
2023-04-11T15:46:27.767Z,17.50
2023-04-11T15:48:58.301Z,17.10
2023-04-11T15:51:27.922Z,16.60
2023-04-11T15:53:56.652Z,16.40
2023-04-11T15:56:25.259Z,16.10
2023-04-11T15:58:54.552Z,16.30
2023-04-11T16:01:25.248Z,16.00
2023-04-11T16:03:55.238Z,17.00
2023-04-11T16:06:24.792Z,17.10
2023-04-11T16:08:54.258Z,17.00
2023-04-11T16:11:22.526Z,16.90
2023-04-11T16:13:53.100Z,16.80
2023-04-11T16:16:22.686Z,16.50
2023-04-11T16:18:53.448Z,16.30
2023-04-11T16:21:22.147Z,16.20
2023-04-11T16:23:51.697Z,16.00
2023-04-11T16:26:21.299Z,15.70
2023-04-11T16:28:51.812Z,15.80
2023-04-11T16:31:24.469Z,16.10
2023-04-11T16:33:55.340Z,15.90
2023-04-11T16:36:24.399Z,15.60
2023-04-11T16:38:57.441Z,14.20
2023-04-11T16:41:25.608Z,15.00
2023-04-11T16:43:55.177Z,14.90
2023-04-11T16:46:23.563Z,14.70
2023-04-11T16:48:55.905Z,14.10
2023-04-11T16:51:26.104Z,13.90
2023-04-11T16:53:57.601Z,13.90
2023-04-11T16:56:29.085Z,14.10
2023-04-11T16:58:58.594Z,14.30
2023-04-11T17:01:26.853Z,14.30
2023-04-11T17:03:58.245Z,14.10
2023-04-11T17:06:29.549Z,13.90
2023-04-11T17:08:59.254Z,13.80
2023-04-11T17:11:29.827Z,13.70
2023-04-11T17:13:58.319Z,13.60
2023-04-11T17:16:29.261Z,13.50
2023-04-11T17:18:59.947Z,14.10
2023-04-11T17:21:29.784Z,13.60
2023-04-11T17:23:58.275Z,12.50
2023-04-11T17:26:29.063Z,13.40
2023-04-11T17:28:57.205Z,13.20
2023-04-11T17:31:27.779Z,13.10
2023-04-11T17:33:57.981Z,12.80
2023-04-11T17:36:28.391Z,11.70
2023-04-11T17:38:57.661Z,13.80
2023-04-11T17:41:26.946Z,12.00
2023-04-11T17:43:56.916Z,12.50
2023-04-11T17:46:25.345Z,12.40
2023-04-11T17:48:53.433Z,12.40
2023-04-11T17:51:21.696Z,12.10
2023-04-11T17:53:51.150Z,11.80
2023-04-11T17:56:19.489Z,11.30
2023-04-11T17:58:50.807Z,10.90
2023-04-11T18:01:19.186Z,10.50
2023-04-11T18:03:51.579Z,10.20
2023-04-11T18:06:19.785Z,9.40
2023-04-11T18:08:51.711Z,9.60
2023-04-11T18:11:21.698Z,9.40
2023-04-11T18:13:52.168Z,9.20
2023-04-11T18:16:22.331Z,9.60
2023-04-11T18:18:51.667Z,8.80
2023-04-11T18:21:21.469Z,8.60
2023-04-11T18:23:51.966Z,8.40
2023-04-11T18:26:22.733Z,8.20
2023-04-11T18:28:51.978Z,8.20
2023-04-11T18:31:20.037Z,7.80
2023-04-11T18:33:49.354Z,7.60
2023-04-11T18:36:19.082Z,7.40
2023-04-11T18:38:49.722Z,7.10
2023-04-11T18:41:19.717Z,6.80
2023-04-11T18:43:51.979Z,6.70
2023-04-11T18:46:19.994Z,8.10
2023-04-11T18:48:48.206Z,6.70
2023-04-11T18:51:16.269Z,8.00
2023-04-11T18:53:46.993Z,6.20
2023-04-11T18:56:15.024Z,6.10
2023-04-11T18:58:45.451Z,4.90
2023-04-11T19:01:17.228Z,5.70
2023-04-11T19:03:49.027Z,5.10
2023-04-11T19:06:17.439Z,6.40
2023-04-11T19:08:45.881Z,5.30
2023-04-11T19:11:15.963Z,6.60
2023-04-11T19:13:44.100Z,5.10
2023-04-11T19:16:12.258Z,5.00
2023-04-11T19:18:41.717Z,4.90
2023-04-11T19:21:09.994Z,4.80
2023-04-11T19:23:39.452Z,4.70
2023-04-11T19:26:09.559Z,4.80
2023-04-11T19:28:38.806Z,4.80
2023-04-11T19:31:06.857Z,4.80
2023-04-11T19:33:37.555Z,4.90
2023-04-11T19:36:07.541Z,5.00
2023-04-11T19:38:37.351Z,5.00
2023-04-11T19:41:12.712Z,5.20
2023-04-11T19:43:42.870Z,5.00
2023-04-11T19:46:13.094Z,4.60
2023-04-11T19:48:43.771Z,5.50
2023-04-11T19:51:14.404Z,4.60
2023-04-11T19:53:43.744Z,4.50
2023-04-11T19:56:14.980Z,4.40
2023-04-11T19:58:44.561Z,3.60
2023-04-11T20:01:13.857Z,3.30
2023-04-11T20:03:42.063Z,4.00
2023-04-11T20:06:13.592Z,3.90
2023-04-11T20:08:44.803Z,3.70
2023-04-11T20:11:16.666Z,3.70
2023-04-11T20:13:44.701Z,3.50
2023-04-11T20:16:12.720Z,3.50
2023-04-11T20:18:42.070Z,3.40
2023-04-11T20:21:10.413Z,4.50
2023-04-11T20:23:40.464Z,3.40
2023-04-11T20:26:09.860Z,3.30
2023-04-11T20:28:39.183Z,4.70
2023-04-11T20:31:08.717Z,1.80
2023-04-11T20:33:36.959Z,3.20
2023-04-11T20:36:06.698Z,3.30
2023-04-11T20:38:36.082Z,3.30
2023-04-11T20:41:05.689Z,3.30
2023-04-11T20:43:37.602Z,3.20
2023-04-11T20:46:08.474Z,3.30
2023-04-11T20:48:37.667Z,3.30
2023-04-11T20:51:07.924Z,3.30
2023-04-11T20:53:38.438Z,3.30
2023-04-11T20:56:07.054Z,3.30
2023-04-11T20:58:37.708Z,3.20
2023-04-11T21:01:07.227Z,3.10
2023-04-11T21:03:38.803Z,3.10
2023-04-11T21:06:07.515Z,3.00
2023-04-11T21:08:37.301Z,3.00
2023-04-11T21:11:07.074Z,3.00
2023-04-11T21:13:38.859Z,3.20
2023-04-11T21:16:10.074Z,3.30
2023-04-11T21:18:38.130Z,3.40
2023-04-11T21:21:07.486Z,3.30
2023-04-11T21:23:35.964Z,3.30
2023-04-11T21:26:05.381Z,3.30
2023-04-11T21:28:35.903Z,4.00
2023-04-11T21:31:05.547Z,3.40
2023-04-11T21:33:34.836Z,3.40
2023-04-11T21:36:04.206Z,3.30
2023-04-11T21:38:32.233Z,4.30
2023-04-11T21:41:01.439Z,3.30
2023-04-11T21:43:29.683Z,5.10
2023-04-11T21:45:57.686Z,5.00
2023-04-11T21:48:28.344Z,4.00
2023-04-11T21:50:57.580Z,4.80
2023-04-11T21:53:27.522Z,3.70
2023-04-11T21:55:55.821Z,4.00
2023-04-11T21:58:29.703Z,3.80
2023-04-11T22:00:59.155Z,4.10
2023-04-11T22:03:29.176Z,4.50
2023-04-11T22:05:58.781Z,4.00
2023-04-11T22:08:30.583Z,3.90
2023-04-11T22:10:58.695Z,4.00
2023-04-11T22:13:28.051Z,4.00
2023-04-11T22:16:05.265Z,3.00
2023-04-11T22:18:46.135Z,4.10
2023-04-11T22:21:19.673Z,4.20
2023-04-11T22:23:51.159Z,4.20
2023-04-11T22:26:26.103Z,4.30
2023-04-11T22:28:56.552Z,4.20
2023-04-11T22:31:34.293Z,4.30
2023-04-11T22:34:05.784Z,4.20
2023-04-11T22:36:36.604Z,4.20
2023-04-11T22:39:05.643Z,4.20
2023-04-11T22:41:34.057Z,4.20
2023-04-11T22:44:04.889Z,5.20
2023-04-11T22:46:38.406Z,3.80
2023-04-11T22:49:09.921Z,3.70
2023-04-11T22:51:40.976Z,4.30
2023-04-11T22:54:09.613Z,4.30
2023-04-11T22:56:37.674Z,4.30
2023-04-11T22:59:06.996Z,4.30
2023-04-11T23:01:35.712Z,4.30
2023-04-11T23:04:05.093Z,4.30
2023-04-11T23:06:35.760Z,4.50
2023-04-11T23:09:04.086Z,4.40
2023-04-11T23:11:32.071Z,4.60
2023-04-11T23:14:01.588Z,4.70
2023-04-11T23:16:30.854Z,4.80
2023-04-11T23:19:00.463Z,4.80
2023-04-11T23:21:29.520Z,4.90
2023-04-11T23:24:00.327Z,5.40
2023-04-11T23:26:29.603Z,5.10
2023-04-11T23:28:57.664Z,6.90
2023-04-11T23:31:27.399Z,5.10
2023-04-11T23:33:57.157Z,5.10
2023-04-11T23:36:25.413Z,4.00
2023-04-11T23:38:53.546Z,5.10
2023-04-11T23:41:23.653Z,3.90
2023-04-11T23:43:52.009Z,8.30
2023-04-11T23:46:21.874Z,3.60
2023-04-11T23:48:52.427Z,5.10
2023-04-11T23:51:20.831Z,3.70
2023-04-11T23:53:51.481Z,5.20
2023-04-11T23:56:21.429Z,4.10
2023-04-11T23:58:52.175Z,5.20
